Parintins, Brazil
Current Conditions -  °F | °C
As of 7:12 AM on Thursday 23 Oct 2014 (Local Time) from SBIC Reporting Station
Broken Clouds Broken Clouds  
Wind Chill: 26°   Ceiling: 10000
Heat Index: 28°   Visibility: 6mi
Dew Point: 26°   Wind: 3mph
Humidity: 100%   Direction: 40°NE
Pressure: 29.91"   Gusts: NA
Location:  2.61°S, 56.74°W
Report Text: SBIC 231112Z 04003KT 9999 SCT015 BKN100 26/26 Q1013
Loading
Personal Weather Stations






























Interactive Weather Map
Tropical Storm Tracking
New forecast layout! Learn more

10-Day Weather Forecast

Advertisements
Track Severe Weather on mobile